KSAD/SAD METAR and TAF weather

Enter ICAO airport designator
Station Type Date Time Source
KSAD METAR 2020/02/20 17:51 UTC NOAA

KSAD 201751Z AUTO 10009KT 10SM CLR 18/02 A3024 RMK AO2 SLP217 T01780022 10178 20017 50009


Station Type Date Time Source
KSAD Decoded METAR 2020/02/20 17:51 UTC NOAA

SAFFORD MUNICIPAL AIRPORT, AZ, United States (KSAD) 32-51N 109-38W 962M
Feb 20, 2020 - 12:51 PM EST / 2020.02.20 1751 UTC
Wind: from the E (100 degrees) at 10 MPH (9 KT):0
Visibility: 10 mile(s):0
Sky conditions: clear
Temperature: 64.0 F (17.8 C)
Dew Point: 36.0 F (2.2 C)
Relative Humidity: 35%
Pressure (altimeter): 30.24 in. Hg (1024 hPa)
Pressure tendency: 0.03 inches (0.9 hPa) higher than three hours ago
ob: KSAD 201751Z AUTO 10009KT 10SM CLR 18/02 A3024 RMK AO2 SLP217 T01780022 10178 20017 50009
cycle: 18

Station Type Date Time Source
KSAD TAF UTC NOAA

Error!

Example: see airport list